sensor_id;sensor_type;location;lat;lon;timestamp;P1;durP1;ratioP1;P2;durP2;ratioP2
67757;SDS011;54562;47.620;18.786;2022-12-18T00:00:14;29.50;;;12.70;;
67757;SDS011;54562;47.620;18.786;2022-12-18T00:03:23;30.60;;;13.10;;
67757;SDS011;54562;47.620;18.786;2022-12-18T00:06:31;24.70;;;9.90;;
67757;SDS011;54562;47.620;18.786;2022-12-18T00:09:43;27.80;;;12.40;;
67757;SDS011;54562;47.620;18.786;2022-12-18T00:12:52;33.50;;;15.00;;
67757;SDS011;54562;47.620;18.786;2022-12-18T00:16:04;35.70;;;13.90;;
67757;SDS011;54562;47.620;18.786;2022-12-18T00:19:15;27.10;;;11.70;;
67757;SDS011;54562;47.620;18.786;2022-12-18T00:22:23;32.80;;;13.30;;
67757;SDS011;54562;47.620;18.786;2022-12-18T00:25:34;29.90;;;13.60;;
67757;SDS011;54562;47.620;18.786;2022-12-18T00:28:43;34.60;;;13.50;;
67757;SDS011;54562;47.620;18.786;2022-12-18T00:31:52;28.50;;;12.90;;
67757;SDS011;54562;47.620;18.786;2022-12-18T00:35:00;32.60;;;13.90;;
67757;SDS011;54562;47.620;18.786;2022-12-18T00:38:08;33.90;;;14.00;;
67757;SDS011;54562;47.620;18.786;2022-12-18T00:41:17;30.70;;;13.90;;
67757;SDS011;54562;47.620;18.786;2022-12-18T00:44:39;28.70;;;12.30;;
67757;SDS011;54562;47.620;18.786;2022-12-18T00:47:48;28.30;;;12.70;;
67757;SDS011;54562;47.620;18.786;2022-12-18T00:50:56;28.20;;;12.60;;
67757;SDS011;54562;47.620;18.786;2022-12-18T00:54:05;32.50;;;14.40;;
67757;SDS011;54562;47.620;18.786;2022-12-18T00:57:13;33.30;;;13.90;;
67757;SDS011;54562;47.620;18.786;2022-12-18T01:00:21;33.50;;;14.30;;
67757;SDS011;54562;47.620;18.786;2022-12-18T01:03:29;33.40;;;14.30;;
67757;SDS011;54562;47.620;18.786;2022-12-18T01:06:37;30.00;;;12.60;;
67757;SDS011;54562;47.620;18.786;2022-12-18T01:09:45;32.60;;;13.70;;
67757;SDS011;54562;47.620;18.786;2022-12-18T01:12:53;34.60;;;14.90;;
67757;SDS011;54562;47.620;18.786;2022-12-18T01:16:02;33.70;;;13.90;;
67757;SDS011;54562;47.620;18.786;2022-12-18T01:19:11;35.40;;;14.80;;
67757;SDS011;54562;47.620;18.786;2022-12-18T01:22:20;31.20;;;13.10;;
67757;SDS011;54562;47.620;18.786;2022-12-18T01:25:29;38.80;;;17.30;;
67757;SDS011;54562;47.620;18.786;2022-12-18T01:28:37;36.10;;;14.20;;
67757;SDS011;54562;47.620;18.786;2022-12-18T01:31:45;40.80;;;16.60;;
67757;SDS011;54562;47.620;18.786;2022-12-18T01:34:54;35.90;;;14.80;;
67757;SDS011;54562;47.620;18.786;2022-12-18T01:38:02;35.70;;;13.90;;
67757;SDS011;54562;47.620;18.786;2022-12-18T01:41:10;31.70;;;13.00;;
67757;SDS011;54562;47.620;18.786;2022-12-18T01:48:09;31.20;;;13.60;;
67757;SDS011;54562;47.620;18.786;2022-12-18T01:51:18;32.90;;;13.40;;
67757;SDS011;54562;47.620;18.786;2022-12-18T01:54:30;40.30;;;15.60;;
67757;SDS011;54562;47.620;18.786;2022-12-18T01:57:38;32.20;;;13.70;;
67757;SDS011;54562;47.620;18.786;2022-12-18T02:00:48;41.60;;;17.20;;
67757;SDS011;54562;47.620;18.786;2022-12-18T02:03:56;35.00;;;14.40;;
67757;SDS011;54562;47.620;18.786;2022-12-18T02:07:34;34.10;;;13.30;;
67757;SDS011;54562;47.620;18.786;2022-12-18T02:10:54;27.90;;;12.10;;
67757;SDS011;54562;47.620;18.786;2022-12-18T02:14:21;29.30;;;13.00;;
67757;SDS011;54562;47.620;18.786;2022-12-18T02:17:38;33.00;;;14.70;;
67757;SDS011;54562;47.620;18.786;2022-12-18T02:20:56;32.10;;;14.00;;
67757;SDS011;54562;47.620;18.786;2022-12-18T02:24:27;38.00;;;15.10;;
67757;SDS011;54562;47.620;18.786;2022-12-18T02:27:42;26.80;;;12.30;;
67757;SDS011;54562;47.620;18.786;2022-12-18T02:30:54;33.80;;;14.90;;
67757;SDS011;54562;47.620;18.786;2022-12-18T02:34:08;29.80;;;12.80;;
67757;SDS011;54562;47.620;18.786;2022-12-18T02:37:20;31.40;;;13.50;;
67757;SDS011;54562;47.620;18.786;2022-12-18T02:40:30;34.30;;;15.50;;
67757;SDS011;54562;47.620;18.786;2022-12-18T02:43:38;36.60;;;14.70;;
67757;SDS011;54562;47.620;18.786;2022-12-18T02:46:50;32.40;;;13.70;;
67757;SDS011;54562;47.620;18.786;2022-12-18T02:50:08;28.30;;;12.30;;
67757;SDS011;54562;47.620;18.786;2022-12-18T02:53:26;35.90;;;14.80;;
67757;SDS011;54562;47.620;18.786;2022-12-18T02:56:46;35.00;;;15.10;;
67757;SDS011;54562;47.620;18.786;2022-12-18T03:00:03;36.80;;;15.80;;
67757;SDS011;54562;47.620;18.786;2022-12-18T03:03:18;30.20;;;14.00;;
67757;SDS011;54562;47.620;18.786;2022-12-18T03:06:35;32.40;;;14.20;;
67757;SDS011;54562;47.620;18.786;2022-12-18T03:09:50;32.60;;;12.50;;
67757;SDS011;54562;47.620;18.786;2022-12-18T03:13:03;38.90;;;16.40;;
67757;SDS011;54562;47.620;18.786;2022-12-18T03:16:17;33.90;;;14.60;;
67757;SDS011;54562;47.620;18.786;2022-12-18T03:19:31;32.70;;;14.20;;
67757;SDS011;54562;47.620;18.786;2022-12-18T03:22:44;38.80;;;15.70;;
67757;SDS011;54562;47.620;18.786;2022-12-18T03:26:02;31.10;;;14.40;;
67757;SDS011;54562;47.620;18.786;2022-12-18T03:29:20;37.00;;;14.20;;
67757;SDS011;54562;47.620;18.786;2022-12-18T03:32:33;31.60;;;12.80;;
67757;SDS011;54562;47.620;18.786;2022-12-18T03:35:47;27.50;;;11.20;;
67757;SDS011;54562;47.620;18.786;2022-12-18T03:38:59;29.20;;;12.70;;
67757;SDS011;54562;47.620;18.786;2022-12-18T03:42:10;29.20;;;12.80;;
67757;SDS011;54562;47.620;18.786;2022-12-18T03:48:44;31.00;;;12.90;;
67757;SDS011;54562;47.620;18.786;2022-12-18T03:52:02;33.80;;;13.00;;
67757;SDS011;54562;47.620;18.786;2022-12-18T03:55:14;24.90;;;11.20;;
67757;SDS011;54562;47.620;18.786;2022-12-18T03:58:25;32.70;;;13.60;;
67757;SDS011;54562;47.620;18.786;2022-12-18T04:01:36;29.20;;;12.80;;
67757;SDS011;54562;47.620;18.786;2022-12-18T04:04:49;30.70;;;13.80;;
67757;SDS011;54562;47.620;18.786;2022-12-18T04:08:01;31.30;;;12.00;;
67757;SDS011;54562;47.620;18.786;2022-12-18T04:11:10;28.00;;;12.70;;
67757;SDS011;54562;47.620;18.786;2022-12-18T04:14:18;33.40;;;13.70;;
67757;SDS011;54562;47.620;18.786;2022-12-18T04:17:26;34.00;;;14.70;;
67757;SDS011;54562;47.620;18.786;2022-12-18T04:20:34;35.60;;;15.60;;
67757;SDS011;54562;47.620;18.786;2022-12-18T04:23:42;37.30;;;15.80;;
67757;SDS011;54562;47.620;18.786;2022-12-18T04:26:50;36.30;;;15.00;;
67757;SDS011;54562;47.620;18.786;2022-12-18T04:29:58;36.80;;;14.30;;
67757;SDS011;54562;47.620;18.786;2022-12-18T04:33:10;27.30;;;12.40;;
67757;SDS011;54562;47.620;18.786;2022-12-18T04:36:21;31.40;;;13.50;;
67757;SDS011;54562;47.620;18.786;2022-12-18T04:39:31;33.20;;;14.30;;
67757;SDS011;54562;47.620;18.786;2022-12-18T04:42:41;33.20;;;15.20;;
67757;SDS011;54562;47.620;18.786;2022-12-18T04:48:58;33.70;;;14.70;;
67757;SDS011;54562;47.620;18.786;2022-12-18T04:52:07;32.10;;;13.80;;
67757;SDS011;54562;47.620;18.786;2022-12-18T04:55:14;37.10;;;15.30;;
67757;SDS011;54562;47.620;18.786;2022-12-18T04:58:22;33.80;;;14.50;;
67757;SDS011;54562;47.620;18.786;2022-12-18T05:01:33;38.40;;;15.10;;
67757;SDS011;54562;47.620;18.786;2022-12-18T05:04:41;32.70;;;14.20;;
67757;SDS011;54562;47.620;18.786;2022-12-18T05:07:50;34.90;;;13.30;;
67757;SDS011;54562;47.620;18.786;2022-12-18T05:11:01;33.20;;;13.70;;
67757;SDS011;54562;47.620;18.786;2022-12-18T05:14:11;29.90;;;13.20;;
67757;SDS011;54562;47.620;18.786;2022-12-18T05:17:19;25.30;;;12.20;;
67757;SDS011;54562;47.620;18.786;2022-12-18T05:20:28;29.60;;;12.20;;
67757;SDS011;54562;47.620;18.786;2022-12-18T05:23:39;31.70;;;14.50;;
67757;SDS011;54562;47.620;18.786;2022-12-18T05:26:48;28.10;;;12.20;;
67757;SDS011;54562;47.620;18.786;2022-12-18T05:29:56;31.20;;;13.60;;
67757;SDS011;54562;47.620;18.786;2022-12-18T05:33:04;32.10;;;13.00;;
67757;SDS011;54562;47.620;18.786;2022-12-18T05:36:12;34.30;;;14.50;;
67757;SDS011;54562;47.620;18.786;2022-12-18T05:39:21;36.00;;;14.50;;
67757;SDS011;54562;47.620;18.786;2022-12-18T05:42:28;40.30;;;15.80;;
67757;SDS011;54562;47.620;18.786;2022-12-18T05:45:39;35.20;;;15.70;;
67757;SDS011;54562;47.620;18.786;2022-12-18T05:48:48;37.20;;;14.80;;
67757;SDS011;54562;47.620;18.786;2022-12-18T05:51:56;43.90;;;17.00;;
67757;SDS011;54562;47.620;18.786;2022-12-18T05:55:06;37.40;;;17.00;;
67757;SDS011;54562;47.620;18.786;2022-12-18T05:58:15;33.60;;;15.60;;
67757;SDS011;54562;47.620;18.786;2022-12-18T06:01:25;39.00;;;16.20;;
67757;SDS011;54562;47.620;18.786;2022-12-18T06:04:34;33.70;;;15.10;;
67757;SDS011;54562;47.620;18.786;2022-12-18T06:07:42;33.60;;;15.00;;
67757;SDS011;54562;47.620;18.786;2022-12-18T06:10:52;30.00;;;13.00;;
67757;SDS011;54562;47.620;18.786;2022-12-18T06:14:01;36.20;;;15.80;;
67757;SDS011;54562;47.620;18.786;2022-12-18T06:17:09;31.90;;;14.10;;
67757;SDS011;54562;47.620;18.786;2022-12-18T06:20:18;35.60;;;15.40;;
67757;SDS011;54562;47.620;18.786;2022-12-18T06:23:26;36.60;;;15.30;;
67757;SDS011;54562;47.620;18.786;2022-12-18T06:26:34;26.10;;;11.50;;
67757;SDS011;54562;47.620;18.786;2022-12-18T06:29:44;26.90;;;11.90;;
67757;SDS011;54562;47.620;18.786;2022-12-18T06:32:52;32.40;;;14.50;;
67757;SDS011;54562;47.620;18.786;2022-12-18T06:36:03;39.50;;;15.50;;
67757;SDS011;54562;47.620;18.786;2022-12-18T06:39:13;35.50;;;14.90;;
67757;SDS011;54562;47.620;18.786;2022-12-18T06:42:24;34.70;;;15.10;;
67757;SDS011;54562;47.620;18.786;2022-12-18T06:45:32;35.80;;;14.20;;
67757;SDS011;54562;47.620;18.786;2022-12-18T06:48:40;37.60;;;14.80;;
67757;SDS011;54562;47.620;18.786;2022-12-18T06:51:48;37.60;;;16.00;;
67757;SDS011;54562;47.620;18.786;2022-12-18T06:54:56;37.10;;;15.70;;
67757;SDS011;54562;47.620;18.786;2022-12-18T06:58:05;43.80;;;17.30;;
67757;SDS011;54562;47.620;18.786;2022-12-18T07:01:15;36.60;;;15.70;;
67757;SDS011;54562;47.620;18.786;2022-12-18T07:04:24;37.70;;;15.20;;
67757;SDS011;54562;47.620;18.786;2022-12-18T07:07:36;36.90;;;16.10;;
67757;SDS011;54562;47.620;18.786;2022-12-18T07:10:45;37.20;;;16.50;;
67757;SDS011;54562;47.620;18.786;2022-12-18T07:14:01;43.20;;;17.40;;
67757;SDS011;54562;47.620;18.786;2022-12-18T07:17:09;37.60;;;16.50;;
67757;SDS011;54562;47.620;18.786;2022-12-18T07:20:18;36.80;;;16.30;;
67757;SDS011;54562;47.620;18.786;2022-12-18T07:23:26;38.90;;;16.50;;
67757;SDS011;54562;47.620;18.786;2022-12-18T07:26:34;37.30;;;15.00;;
67757;SDS011;54562;47.620;18.786;2022-12-18T07:29:42;37.40;;;16.40;;
67757;SDS011;54562;47.620;18.786;2022-12-18T07:32:50;35.30;;;15.30;;
67757;SDS011;54562;47.620;18.786;2022-12-18T07:35:59;37.40;;;15.40;;
67757;SDS011;54562;47.620;18.786;2022-12-18T07:39:10;32.90;;;14.50;;
67757;SDS011;54562;47.620;18.786;2022-12-18T07:42:18;43.80;;;16.80;;
67757;SDS011;54562;47.620;18.786;2022-12-18T07:45:38;34.60;;;16.20;;
67757;SDS011;54562;47.620;18.786;2022-12-18T07:48:48;28.30;;;11.50;;
67757;SDS011;54562;47.620;18.786;2022-12-18T07:51:56;34.80;;;14.40;;
67757;SDS011;54562;47.620;18.786;2022-12-18T07:55:08;28.90;;;13.10;;
67757;SDS011;54562;47.620;18.786;2022-12-18T07:58:16;35.20;;;14.50;;
67757;SDS011;54562;47.620;18.786;2022-12-18T08:01:25;34.90;;;14.20;;
67757;SDS011;54562;47.620;18.786;2022-12-18T08:04:33;33.00;;;15.40;;
67757;SDS011;54562;47.620;18.786;2022-12-18T08:07:41;33.50;;;14.10;;
67757;SDS011;54562;47.620;18.786;2022-12-18T08:10:49;29.90;;;11.70;;
67757;SDS011;54562;47.620;18.786;2022-12-18T08:13:57;38.10;;;15.10;;
67757;SDS011;54562;47.620;18.786;2022-12-18T08:17:05;42.20;;;17.20;;
67757;SDS011;54562;47.620;18.786;2022-12-18T08:20:14;38.30;;;16.90;;
67757;SDS011;54562;47.620;18.786;2022-12-18T08:23:23;34.40;;;16.70;;
67757;SDS011;54562;47.620;18.786;2022-12-18T08:26:33;40.50;;;16.10;;
67757;SDS011;54562;47.620;18.786;2022-12-18T08:29:41;37.10;;;16.30;;
67757;SDS011;54562;47.620;18.786;2022-12-18T08:32:52;40.60;;;17.50;;
67757;SDS011;54562;47.620;18.786;2022-12-18T08:36:03;29.00;;;12.50;;
67757;SDS011;54562;47.620;18.786;2022-12-18T08:39:12;42.70;;;17.10;;
67757;SDS011;54562;47.620;18.786;2022-12-18T08:42:20;44.70;;;19.20;;
67757;SDS011;54562;47.620;18.786;2022-12-18T08:45:46;38.70;;;17.00;;
67757;SDS011;54562;47.620;18.786;2022-12-18T08:48:54;36.30;;;16.70;;
67757;SDS011;54562;47.620;18.786;2022-12-18T08:52:03;39.40;;;15.70;;
67757;SDS011;54562;47.620;18.786;2022-12-18T08:55:11;37.60;;;16.20;;
67757;SDS011;54562;47.620;18.786;2022-12-18T08:58:20;27.30;;;11.00;;
67757;SDS011;54562;47.620;18.786;2022-12-18T09:01:29;33.50;;;14.50;;
67757;SDS011;54562;47.620;18.786;2022-12-18T09:04:38;36.00;;;14.50;;
67757;SDS011;54562;47.620;18.786;2022-12-18T09:07:50;36.30;;;15.00;;
67757;SDS011;54562;47.620;18.786;2022-12-18T09:10:58;35.80;;;15.70;;
67757;SDS011;54562;47.620;18.786;2022-12-18T09:14:07;36.10;;;15.30;;
67757;SDS011;54562;47.620;18.786;2022-12-18T09:17:16;32.00;;;13.60;;
67757;SDS011;54562;47.620;18.786;2022-12-18T09:20:24;37.50;;;16.60;;
67757;SDS011;54562;47.620;18.786;2022-12-18T09:23:35;38.00;;;16.40;;
67757;SDS011;54562;47.620;18.786;2022-12-18T09:26:43;33.40;;;14.30;;
67757;SDS011;54562;47.620;18.786;2022-12-18T09:29:51;38.80;;;18.30;;
67757;SDS011;54562;47.620;18.786;2022-12-18T09:33:00;36.80;;;15.50;;
67757;SDS011;54562;47.620;18.786;2022-12-18T09:36:12;37.80;;;17.10;;
67757;SDS011;54562;47.620;18.786;2022-12-18T09:39:23;41.00;;;18.30;;
67757;SDS011;54562;47.620;18.786;2022-12-18T09:42:31;40.20;;;18.80;;
67757;SDS011;54562;47.620;18.786;2022-12-18T09:45:42;37.60;;;17.10;;
67757;SDS011;54562;47.620;18.786;2022-12-18T09:48:57;40.50;;;18.10;;
67757;SDS011;54562;47.620;18.786;2022-12-18T09:52:15;35.00;;;16.70;;
67757;SDS011;54562;47.620;18.786;2022-12-18T09:55:30;39.30;;;17.10;;
67757;SDS011;54562;47.620;18.786;2022-12-18T09:58:48;36.90;;;16.00;;
67757;SDS011;54562;47.620;18.786;2022-12-18T10:02:01;37.80;;;17.90;;
67757;SDS011;54562;47.620;18.786;2022-12-18T10:05:31;34.10;;;15.10;;
67757;SDS011;54562;47.620;18.786;2022-12-18T10:08:54;31.20;;;12.90;;
67757;SDS011;54562;47.620;18.786;2022-12-18T10:12:12;33.10;;;15.00;;
67757;SDS011;54562;47.620;18.786;2022-12-18T10:15:31;32.30;;;15.40;;
67757;SDS011;54562;47.620;18.786;2022-12-18T10:19:04;38.70;;;17.00;;
67757;SDS011;54562;47.620;18.786;2022-12-18T10:26:02;30.90;;;14.20;;
67757;SDS011;54562;47.620;18.786;2022-12-18T10:29:14;34.90;;;15.60;;
67757;SDS011;54562;47.620;18.786;2022-12-18T10:32:26;32.50;;;13.70;;
67757;SDS011;54562;47.620;18.786;2022-12-18T10:35:37;22.10;;;10.70;;
67757;SDS011;54562;47.620;18.786;2022-12-18T10:38:50;22.30;;;11.20;;
67757;SDS011;54562;47.620;18.786;2022-12-18T10:42:11;22.10;;;9.50;;
67757;SDS011;54562;47.620;18.786;2022-12-18T10:45:25;26.00;;;10.30;;
67757;SDS011;54562;47.620;18.786;2022-12-18T10:48:33;24.20;;;11.00;;
67757;SDS011;54562;47.620;18.786;2022-12-18T10:51:47;23.80;;;10.80;;
67757;SDS011;54562;47.620;18.786;2022-12-18T10:54:58;26.90;;;12.20;;
67757;SDS011;54562;47.620;18.786;2022-12-18T10:58:25;32.60;;;12.30;;
67757;SDS011;54562;47.620;18.786;2022-12-18T11:01:51;28.30;;;13.20;;
67757;SDS011;54562;47.620;18.786;2022-12-18T11:05:02;29.80;;;12.90;;
67757;SDS011;54562;47.620;18.786;2022-12-18T11:08:29;28.40;;;12.90;;
67757;SDS011;54562;47.620;18.786;2022-12-18T11:11:38;28.00;;;12.90;;
67757;SDS011;54562;47.620;18.786;2022-12-18T11:14:51;28.10;;;13.00;;
67757;SDS011;54562;47.620;18.786;2022-12-18T11:18:13;27.90;;;12.80;;
67757;SDS011;54562;47.620;18.786;2022-12-18T11:21:27;28.40;;;12.30;;
67757;SDS011;54562;47.620;18.786;2022-12-18T11:24:36;29.70;;;14.00;;
67757;SDS011;54562;47.620;18.786;2022-12-18T11:27:50;32.00;;;13.50;;
67757;SDS011;54562;47.620;18.786;2022-12-18T11:31:20;31.00;;;13.90;;
67757;SDS011;54562;47.620;18.786;2022-12-18T11:34:31;33.20;;;15.30;;
67757;SDS011;54562;47.620;18.786;2022-12-18T11:40:54;29.80;;;13.90;;
67757;SDS011;54562;47.620;18.786;2022-12-18T11:44:08;31.10;;;13.40;;
67757;SDS011;54562;47.620;18.786;2022-12-18T11:47:27;28.00;;;12.80;;
67757;SDS011;54562;47.620;18.786;2022-12-18T11:50:48;32.10;;;14.70;;
67757;SDS011;54562;47.620;18.786;2022-12-18T11:53:57;29.40;;;14.10;;
67757;SDS011;54562;47.620;18.786;2022-12-18T11:57:10;28.10;;;13.80;;
67757;SDS011;54562;47.620;18.786;2022-12-18T12:00:26;29.30;;;12.90;;
67757;SDS011;54562;47.620;18.786;2022-12-18T12:03:59;33.00;;;15.40;;
67757;SDS011;54562;47.620;18.786;2022-12-18T12:07:24;31.10;;;14.60;;
67757;SDS011;54562;47.620;18.786;2022-12-18T12:10:47;29.60;;;14.30;;
67757;SDS011;54562;47.620;18.786;2022-12-18T12:14:24;33.30;;;15.60;;
67757;SDS011;54562;47.620;18.786;2022-12-18T12:17:58;33.20;;;14.60;;
67757;SDS011;54562;47.620;18.786;2022-12-18T12:21:22;34.80;;;16.40;;
67757;SDS011;54562;47.620;18.786;2022-12-18T12:28:10;35.10;;;16.60;;
67757;SDS011;54562;47.620;18.786;2022-12-18T12:31:36;39.80;;;18.10;;
67757;SDS011;54562;47.620;18.786;2022-12-18T12:35:08;35.10;;;16.90;;
67757;SDS011;54562;47.620;18.786;2022-12-18T12:38:33;37.10;;;16.80;;
67757;SDS011;54562;47.620;18.786;2022-12-18T12:41:59;34.90;;;16.20;;
67757;SDS011;54562;47.620;18.786;2022-12-18T12:45:31;35.10;;;16.10;;
67757;SDS011;54562;47.620;18.786;2022-12-18T12:48:48;32.60;;;16.20;;
67757;SDS011;54562;47.620;18.786;2022-12-18T12:52:03;34.30;;;15.90;;
67757;SDS011;54562;47.620;18.786;2022-12-18T12:55:18;34.10;;;15.80;;
67757;SDS011;54562;47.620;18.786;2022-12-18T12:58:35;35.30;;;16.20;;
67757;SDS011;54562;47.620;18.786;2022-12-18T13:01:54;34.50;;;17.30;;
67757;SDS011;54562;47.620;18.786;2022-12-18T13:05:18;36.40;;;16.80;;
67757;SDS011;54562;47.620;18.786;2022-12-18T13:08:32;37.30;;;18.00;;
67757;SDS011;54562;47.620;18.786;2022-12-18T13:12:03;37.20;;;17.50;;
67757;SDS011;54562;47.620;18.786;2022-12-18T13:15:43;35.60;;;18.10;;
67757;SDS011;54562;47.620;18.786;2022-12-18T13:18:55;38.30;;;18.10;;
67757;SDS011;54562;47.620;18.786;2022-12-18T13:22:04;34.30;;;17.30;;
67757;SDS011;54562;47.620;18.786;2022-12-18T13:25:32;35.40;;;17.50;;
67757;SDS011;54562;47.620;18.786;2022-12-18T13:28:56;39.20;;;19.50;;
67757;SDS011;54562;47.620;18.786;2022-12-18T13:32:21;39.70;;;18.10;;
67757;SDS011;54562;47.620;18.786;2022-12-18T13:35:40;34.30;;;16.80;;
67757;SDS011;54562;47.620;18.786;2022-12-18T13:39:35;32.20;;;16.20;;
67757;SDS011;54562;47.620;18.786;2022-12-18T13:42:43;31.60;;;15.20;;
67757;SDS011;54562;47.620;18.786;2022-12-18T13:46:30;33.20;;;15.90;;
67757;SDS011;54562;47.620;18.786;2022-12-18T13:49:56;35.80;;;16.80;;
67757;SDS011;54562;47.620;18.786;2022-12-18T13:53:06;36.50;;;18.50;;
67757;SDS011;54562;47.620;18.786;2022-12-18T13:56:26;38.30;;;19.70;;
67757;SDS011;54562;47.620;18.786;2022-12-18T13:59:39;40.40;;;19.90;;
67757;SDS011;54562;47.620;18.786;2022-12-18T14:02:47;41.20;;;20.30;;
67757;SDS011;54562;47.620;18.786;2022-12-18T14:06:00;41.10;;;20.70;;
67757;SDS011;54562;47.620;18.786;2022-12-18T14:09:15;37.30;;;19.70;;
67757;SDS011;54562;47.620;18.786;2022-12-18T14:12:28;38.30;;;19.90;;
67757;SDS011;54562;47.620;18.786;2022-12-18T14:15:56;42.10;;;21.50;;
67757;SDS011;54562;47.620;18.786;2022-12-18T14:19:13;42.80;;;21.00;;
67757;SDS011;54562;47.620;18.786;2022-12-18T14:22:26;45.80;;;20.90;;
67757;SDS011;54562;47.620;18.786;2022-12-18T14:25:35;43.80;;;21.10;;
67757;SDS011;54562;47.620;18.786;2022-12-18T14:28:46;45.30;;;21.90;;
67757;SDS011;54562;47.620;18.786;2022-12-18T14:32:11;48.00;;;22.50;;
67757;SDS011;54562;47.620;18.786;2022-12-18T14:35:23;43.10;;;20.00;;
67757;SDS011;54562;47.620;18.786;2022-12-18T14:38:32;51.80;;;22.10;;
67757;SDS011;54562;47.620;18.786;2022-12-18T14:41:41;47.60;;;22.80;;
67757;SDS011;54562;47.620;18.786;2022-12-18T14:44:50;50.80;;;22.10;;
67757;SDS011;54562;47.620;18.786;2022-12-18T14:48:21;43.00;;;19.70;;
67757;SDS011;54562;47.620;18.786;2022-12-18T14:51:37;44.30;;;19.20;;
67757;SDS011;54562;47.620;18.786;2022-12-18T14:54:47;41.50;;;19.30;;
67757;SDS011;54562;47.620;18.786;2022-12-18T15:01:04;41.60;;;18.40;;
67757;SDS011;54562;47.620;18.786;2022-12-18T15:04:27;42.20;;;19.00;;
67757;SDS011;54562;47.620;18.786;2022-12-18T15:07:43;44.00;;;19.30;;
67757;SDS011;54562;47.620;18.786;2022-12-18T15:10:52;45.10;;;19.30;;
67757;SDS011;54562;47.620;18.786;2022-12-18T15:14:03;42.10;;;20.10;;
67757;SDS011;54562;47.620;18.786;2022-12-18T15:17:37;41.30;;;20.00;;
67757;SDS011;54562;47.620;18.786;2022-12-18T15:20:47;45.00;;;18.80;;
67757;SDS011;54562;47.620;18.786;2022-12-18T15:24:03;38.30;;;17.10;;
67757;SDS011;54562;47.620;18.786;2022-12-18T15:27:27;42.30;;;18.70;;
67757;SDS011;54562;47.620;18.786;2022-12-18T15:30:38;45.10;;;18.80;;
67757;SDS011;54562;47.620;18.786;2022-12-18T15:34:05;45.90;;;19.80;;
67757;SDS011;54562;47.620;18.786;2022-12-18T15:37:18;42.00;;;18.80;;
67757;SDS011;54562;47.620;18.786;2022-12-18T15:40:26;39.70;;;18.60;;
67757;SDS011;54562;47.620;18.786;2022-12-18T15:43:37;41.00;;;18.40;;
67757;SDS011;54562;47.620;18.786;2022-12-18T15:46:47;48.20;;;20.30;;
67757;SDS011;54562;47.620;18.786;2022-12-18T15:49:56;46.70;;;20.40;;
67757;SDS011;54562;47.620;18.786;2022-12-18T15:53:04;44.00;;;19.90;;
67757;SDS011;54562;47.620;18.786;2022-12-18T15:56:15;42.50;;;19.00;;
67757;SDS011;54562;47.620;18.786;2022-12-18T15:59:42;42.10;;;18.20;;
67757;SDS011;54562;47.620;18.786;2022-12-18T16:02:50;36.60;;;16.30;;
67757;SDS011;54562;47.620;18.786;2022-12-18T16:05:59;34.90;;;15.80;;
67757;SDS011;54562;47.620;18.786;2022-12-18T16:09:08;38.60;;;17.50;;
67757;SDS011;54562;47.620;18.786;2022-12-18T16:12:19;35.70;;;16.70;;
67757;SDS011;54562;47.620;18.786;2022-12-18T16:15:29;46.30;;;17.90;;
67757;SDS011;54562;47.620;18.786;2022-12-18T16:18:36;39.20;;;16.20;;
67757;SDS011;54562;47.620;18.786;2022-12-18T16:21:47;39.70;;;17.30;;
67757;SDS011;54562;47.620;18.786;2022-12-18T16:24:57;37.10;;;17.60;;
67757;SDS011;54562;47.620;18.786;2022-12-18T16:28:05;41.70;;;17.60;;
67757;SDS011;54562;47.620;18.786;2022-12-18T16:31:13;42.20;;;19.20;;
67757;SDS011;54562;47.620;18.786;2022-12-18T16:34:22;46.40;;;20.90;;
67757;SDS011;54562;47.620;18.786;2022-12-18T16:37:33;48.50;;;19.70;;
67757;SDS011;54562;47.620;18.786;2022-12-18T16:40:42;39.00;;;17.60;;
67757;SDS011;54562;47.620;18.786;2022-12-18T16:44:04;46.70;;;18.40;;
67757;SDS011;54562;47.620;18.786;2022-12-18T16:47:12;47.60;;;20.10;;
67757;SDS011;54562;47.620;18.786;2022-12-18T16:50:20;41.90;;;17.60;;
67757;SDS011;54562;47.620;18.786;2022-12-18T16:53:32;40.90;;;19.00;;
67757;SDS011;54562;47.620;18.786;2022-12-18T16:56:40;48.30;;;19.80;;
67757;SDS011;54562;47.620;18.786;2022-12-18T16:59:49;44.00;;;19.20;;
67757;SDS011;54562;47.620;18.786;2022-12-18T17:02:58;46.80;;;20.30;;
67757;SDS011;54562;47.620;18.786;2022-12-18T17:06:07;36.10;;;16.80;;
67757;SDS011;54562;47.620;18.786;2022-12-18T17:09:16;43.50;;;18.40;;
67757;SDS011;54562;47.620;18.786;2022-12-18T17:12:26;38.60;;;16.50;;
67757;SDS011;54562;47.620;18.786;2022-12-18T17:15:36;34.40;;;15.00;;
67757;SDS011;54562;47.620;18.786;2022-12-18T17:18:47;31.80;;;13.90;;
67757;SDS011;54562;47.620;18.786;2022-12-18T17:25:24;33.60;;;15.80;;
67757;SDS011;54562;47.620;18.786;2022-12-18T17:28:32;39.10;;;16.30;;
67757;SDS011;54562;47.620;18.786;2022-12-18T17:31:39;35.30;;;15.70;;
67757;SDS011;54562;47.620;18.786;2022-12-18T17:34:48;40.60;;;17.20;;
67757;SDS011;54562;47.620;18.786;2022-12-18T17:37:56;43.30;;;20.00;;
67757;SDS011;54562;47.620;18.786;2022-12-18T17:41:07;49.30;;;20.90;;
67757;SDS011;54562;47.620;18.786;2022-12-18T17:44:16;41.90;;;19.20;;
67757;SDS011;54562;47.620;18.786;2022-12-18T17:47:25;46.20;;;18.80;;
67757;SDS011;54562;47.620;18.786;2022-12-18T17:50:34;40.00;;;19.40;;
67757;SDS011;54562;47.620;18.786;2022-12-18T17:53:43;41.80;;;19.00;;
67757;SDS011;54562;47.620;18.786;2022-12-18T17:56:51;43.30;;;19.40;;
67757;SDS011;54562;47.620;18.786;2022-12-18T18:00:00;45.80;;;19.80;;
67757;SDS011;54562;47.620;18.786;2022-12-18T18:03:09;39.10;;;17.80;;
67757;SDS011;54562;47.620;18.786;2022-12-18T18:06:18;39.00;;;17.40;;
67757;SDS011;54562;47.620;18.786;2022-12-18T18:09:26;41.00;;;17.80;;
67757;SDS011;54562;47.620;18.786;2022-12-18T18:12:35;37.50;;;16.40;;
67757;SDS011;54562;47.620;18.786;2022-12-18T18:16:01;34.50;;;14.90;;
67757;SDS011;54562;47.620;18.786;2022-12-18T18:19:12;30.90;;;13.60;;
67757;SDS011;54562;47.620;18.786;2022-12-18T18:22:20;30.60;;;13.50;;
67757;SDS011;54562;47.620;18.786;2022-12-18T18:25:28;31.50;;;13.20;;
67757;SDS011;54562;47.620;18.786;2022-12-18T18:28:40;34.40;;;15.10;;
67757;SDS011;54562;47.620;18.786;2022-12-18T18:31:50;33.50;;;14.60;;
67757;SDS011;54562;47.620;18.786;2022-12-18T18:34:58;29.20;;;13.30;;
67757;SDS011;54562;47.620;18.786;2022-12-18T18:38:06;35.30;;;16.00;;
67757;SDS011;54562;47.620;18.786;2022-12-18T18:41:15;34.90;;;14.20;;
67757;SDS011;54562;47.620;18.786;2022-12-18T18:44:23;27.30;;;13.20;;
67757;SDS011;54562;47.620;18.786;2022-12-18T18:47:34;33.10;;;15.30;;
67757;SDS011;54562;47.620;18.786;2022-12-18T18:50:42;31.20;;;15.50;;
67757;SDS011;54562;47.620;18.786;2022-12-18T18:53:51;34.70;;;16.70;;
67757;SDS011;54562;47.620;18.786;2022-12-18T19:00:24;27.60;;;13.40;;